sensor_id;sensor_type;location;lat;lon;timestamp;P1;durP1;ratioP1;P2;durP2;ratioP2
79130;SDS011;72396;45.194;9.142;2024-03-02T00:02:23;7.65;;;4.28;;
79130;SDS011;72396;45.194;9.142;2024-03-02T00:04:49;8.18;;;4.68;;
79130;SDS011;72396;45.194;9.142;2024-03-02T00:07:14;7.65;;;4.47;;
79130;SDS011;72396;45.194;9.142;2024-03-02T00:09:40;7.30;;;4.43;;
79130;SDS011;72396;45.194;9.142;2024-03-02T00:12:05;8.35;;;4.28;;
79130;SDS011;72396;45.194;9.142;2024-03-02T00:14:31;7.13;;;4.18;;
79130;SDS011;72396;45.194;9.142;2024-03-02T00:16:57;7.32;;;3.83;;
79130;SDS011;72396;45.194;9.142;2024-03-02T00:19:22;7.78;;;3.60;;
79130;SDS011;72396;45.194;9.142;2024-03-02T00:21:48;5.40;;;3.67;;
79130;SDS011;72396;45.194;9.142;2024-03-02T00:24:18;6.30;;;3.15;;
79130;SDS011;72396;45.194;9.142;2024-03-02T00:26:46;7.70;;;3.72;;
79130;SDS011;72396;45.194;9.142;2024-03-02T00:29:11;5.85;;;3.33;;
79130;SDS011;72396;45.194;9.142;2024-03-02T00:31:42;5.60;;;2.92;;
79130;SDS011;72396;45.194;9.142;2024-03-02T00:34:07;6.38;;;3.00;;
79130;SDS011;72396;45.194;9.142;2024-03-02T00:36:33;4.93;;;2.83;;
79130;SDS011;72396;45.194;9.142;2024-03-02T00:38:58;5.05;;;3.13;;
79130;SDS011;72396;45.194;9.142;2024-03-02T00:46:19;5.97;;;3.13;;
79130;SDS011;72396;45.194;9.142;2024-03-02T00:48:48;5.57;;;3.33;;
79130;SDS011;72396;45.194;9.142;2024-03-02T00:51:23;6.38;;;2.97;;
79130;SDS011;72396;45.194;9.142;2024-03-02T00:53:53;5.68;;;3.33;;
79130;SDS011;72396;45.194;9.142;2024-03-02T00:56:21;5.20;;;3.05;;
79130;SDS011;72396;45.194;9.142;2024-03-02T00:58:47;5.97;;;3.45;;
79130;SDS011;72396;45.194;9.142;2024-03-02T01:01:13;6.63;;;3.88;;
79130;SDS011;72396;45.194;9.142;2024-03-02T01:03:38;5.10;;;2.80;;
79130;SDS011;72396;45.194;9.142;2024-03-02T01:06:04;5.63;;;3.35;;
79130;SDS011;72396;45.194;9.142;2024-03-02T01:08:30;5.75;;;3.65;;
79130;SDS011;72396;45.194;9.142;2024-03-02T01:10:55;6.35;;;4.05;;
79130;SDS011;72396;45.194;9.142;2024-03-02T01:13:21;5.63;;;3.40;;
79130;SDS011;72396;45.194;9.142;2024-03-02T01:15:48;5.20;;;3.15;;
79130;SDS011;72396;45.194;9.142;2024-03-02T01:18:14;5.93;;;3.67;;
79130;SDS011;72396;45.194;9.142;2024-03-02T01:20:39;5.55;;;3.40;;
79130;SDS011;72396;45.194;9.142;2024-03-02T01:23:04;6.05;;;3.58;;
79130;SDS011;72396;45.194;9.142;2024-03-02T01:25:30;5.50;;;3.42;;
79130;SDS011;72396;45.194;9.142;2024-03-02T01:27:55;6.95;;;3.75;;
79130;SDS011;72396;45.194;9.142;2024-03-02T01:30:20;5.35;;;3.53;;
79130;SDS011;72396;45.194;9.142;2024-03-02T01:32:46;6.30;;;3.20;;
79130;SDS011;72396;45.194;9.142;2024-03-02T01:35:11;6.10;;;3.60;;
79130;SDS011;72396;45.194;9.142;2024-03-02T01:37:37;6.05;;;3.70;;
79130;SDS011;72396;45.194;9.142;2024-03-02T01:40:02;6.90;;;3.30;;
79130;SDS011;72396;45.194;9.142;2024-03-02T01:44:59;5.47;;;2.88;;
79130;SDS011;72396;45.194;9.142;2024-03-02T01:47:25;5.70;;;2.70;;
79130;SDS011;72396;45.194;9.142;2024-03-02T01:49:50;4.78;;;3.33;;
79130;SDS011;72396;45.194;9.142;2024-03-02T01:52:15;6.50;;;3.60;;
79130;SDS011;72396;45.194;9.142;2024-03-02T01:54:41;6.80;;;3.28;;
79130;SDS011;72396;45.194;9.142;2024-03-02T01:57:06;5.05;;;3.30;;
79130;SDS011;72396;45.194;9.142;2024-03-02T01:59:31;4.80;;;2.67;;
79130;SDS011;72396;45.194;9.142;2024-03-02T02:01:57;5.45;;;3.17;;
79130;SDS011;72396;45.194;9.142;2024-03-02T02:04:22;5.80;;;3.10;;
79130;SDS011;72396;45.194;9.142;2024-03-02T02:06:52;5.50;;;3.42;;
79130;SDS011;72396;45.194;9.142;2024-03-02T02:09:17;6.25;;;3.53;;
79130;SDS011;72396;45.194;9.142;2024-03-02T02:11:43;6.28;;;3.60;;
79130;SDS011;72396;45.194;9.142;2024-03-02T02:14:08;6.78;;;3.60;;
79130;SDS011;72396;45.194;9.142;2024-03-02T02:16:34;7.30;;;3.70;;
79130;SDS011;72396;45.194;9.142;2024-03-02T02:18:59;6.05;;;3.60;;
79130;SDS011;72396;45.194;9.142;2024-03-02T02:21:24;5.95;;;3.42;;
79130;SDS011;72396;45.194;9.142;2024-03-02T02:23:50;6.30;;;3.80;;
79130;SDS011;72396;45.194;9.142;2024-03-02T02:26:16;6.22;;;3.90;;
79130;SDS011;72396;45.194;9.142;2024-03-02T02:28:41;6.70;;;3.58;;
79130;SDS011;72396;45.194;9.142;2024-03-02T02:31:15;5.95;;;3.15;;
79130;SDS011;72396;45.194;9.142;2024-03-02T02:33:40;5.63;;;3.17;;
79130;SDS011;72396;45.194;9.142;2024-03-02T02:36:06;5.80;;;4.03;;
79130;SDS011;72396;45.194;9.142;2024-03-02T02:38:32;7.32;;;3.95;;
79130;SDS011;72396;45.194;9.142;2024-03-02T02:40:58;6.32;;;3.50;;
79130;SDS011;72396;45.194;9.142;2024-03-02T02:43:24;6.18;;;3.80;;
79130;SDS011;72396;45.194;9.142;2024-03-02T02:45:49;6.47;;;3.75;;
79130;SDS011;72396;45.194;9.142;2024-03-02T02:48:14;5.68;;;3.33;;
79130;SDS011;72396;45.194;9.142;2024-03-02T02:50:41;5.32;;;3.22;;
79130;SDS011;72396;45.194;9.142;2024-03-02T02:53:06;6.30;;;3.50;;
79130;SDS011;72396;45.194;9.142;2024-03-02T02:55:34;6.43;;;3.60;;
79130;SDS011;72396;45.194;9.142;2024-03-02T02:57:59;6.00;;;3.38;;
79130;SDS011;72396;45.194;9.142;2024-03-02T03:00:25;7.32;;;4.05;;
79130;SDS011;72396;45.194;9.142;2024-03-02T03:02:50;7.18;;;3.90;;
79130;SDS011;72396;45.194;9.142;2024-03-02T03:05:16;7.65;;;3.67;;
79130;SDS011;72396;45.194;9.142;2024-03-02T03:07:42;6.30;;;3.53;;
79130;SDS011;72396;45.194;9.142;2024-03-02T03:10:09;6.80;;;4.00;;
79130;SDS011;72396;45.194;9.142;2024-03-02T03:12:34;5.93;;;3.67;;
79130;SDS011;72396;45.194;9.142;2024-03-02T03:15:00;5.72;;;3.42;;
79130;SDS011;72396;45.194;9.142;2024-03-02T03:17:26;6.43;;;3.50;;
79130;SDS011;72396;45.194;9.142;2024-03-02T03:19:52;8.88;;;3.88;;
79130;SDS011;72396;45.194;9.142;2024-03-02T03:22:18;6.43;;;3.60;;
79130;SDS011;72396;45.194;9.142;2024-03-02T03:24:43;5.85;;;3.63;;
79130;SDS011;72396;45.194;9.142;2024-03-02T03:27:09;6.55;;;3.40;;
79130;SDS011;72396;45.194;9.142;2024-03-02T03:29:36;6.68;;;3.53;;
79130;SDS011;72396;45.194;9.142;2024-03-02T03:32:01;6.60;;;3.95;;
79130;SDS011;72396;45.194;9.142;2024-03-02T03:34:27;6.07;;;3.35;;
79130;SDS011;72396;45.194;9.142;2024-03-02T03:36:54;6.45;;;4.20;;
79130;SDS011;72396;45.194;9.142;2024-03-02T03:39:19;6.75;;;3.70;;
79130;SDS011;72396;45.194;9.142;2024-03-02T03:41:44;6.93;;;3.67;;
79130;SDS011;72396;45.194;9.142;2024-03-02T03:44:10;5.72;;;3.55;;
79130;SDS011;72396;45.194;9.142;2024-03-02T03:46:35;6.32;;;3.58;;
79130;SDS011;72396;45.194;9.142;2024-03-02T03:49:00;6.50;;;3.90;;
79130;SDS011;72396;45.194;9.142;2024-03-02T03:51:26;6.80;;;3.92;;
79130;SDS011;72396;45.194;9.142;2024-03-02T03:53:51;6.03;;;3.38;;
79130;SDS011;72396;45.194;9.142;2024-03-02T03:56:16;6.15;;;3.47;;
79130;SDS011;72396;45.194;9.142;2024-03-02T03:58:42;6.75;;;3.70;;
79130;SDS011;72396;45.194;9.142;2024-03-02T04:01:07;8.15;;;3.97;;
79130;SDS011;72396;45.194;9.142;2024-03-02T04:03:33;6.63;;;3.47;;
79130;SDS011;72396;45.194;9.142;2024-03-02T04:05:58;6.15;;;3.85;;
79130;SDS011;72396;45.194;9.142;2024-03-02T04:08:24;6.28;;;3.53;;
79130;SDS011;72396;45.194;9.142;2024-03-02T04:10:49;5.68;;;3.40;;
79130;SDS011;72396;45.194;9.142;2024-03-02T04:13:14;6.18;;;3.70;;
79130;SDS011;72396;45.194;9.142;2024-03-02T04:15:39;6.00;;;3.28;;
79130;SDS011;72396;45.194;9.142;2024-03-02T04:18:05;5.70;;;3.33;;
79130;SDS011;72396;45.194;9.142;2024-03-02T04:20:31;6.50;;;3.78;;
79130;SDS011;72396;45.194;9.142;2024-03-02T04:22:57;6.25;;;3.65;;
79130;SDS011;72396;45.194;9.142;2024-03-02T04:25:22;5.90;;;3.53;;
79130;SDS011;72396;45.194;9.142;2024-03-02T04:27:47;6.05;;;3.45;;
79130;SDS011;72396;45.194;9.142;2024-03-02T04:30:13;6.78;;;3.72;;
79130;SDS011;72396;45.194;9.142;2024-03-02T04:32:38;7.68;;;3.58;;
79130;SDS011;72396;45.194;9.142;2024-03-02T04:35:04;6.65;;;3.55;;
79130;SDS011;72396;45.194;9.142;2024-03-02T04:37:31;6.35;;;3.75;;
79130;SDS011;72396;45.194;9.142;2024-03-02T04:39:59;7.07;;;3.55;;
79130;SDS011;72396;45.194;9.142;2024-03-02T04:42:24;6.05;;;3.60;;
79130;SDS011;72396;45.194;9.142;2024-03-02T04:44:50;7.32;;;4.13;;
79130;SDS011;72396;45.194;9.142;2024-03-02T04:47:15;6.68;;;3.58;;
79130;SDS011;72396;45.194;9.142;2024-03-02T04:49:40;7.78;;;4.07;;
79130;SDS011;72396;45.194;9.142;2024-03-02T04:52:06;5.75;;;3.25;;
79130;SDS011;72396;45.194;9.142;2024-03-02T04:54:31;6.68;;;4.07;;
79130;SDS011;72396;45.194;9.142;2024-03-02T04:56:57;8.00;;;3.95;;
79130;SDS011;72396;45.194;9.142;2024-03-02T04:59:23;8.95;;;4.88;;
79130;SDS011;72396;45.194;9.142;2024-03-02T05:01:48;7.72;;;4.10;;
79130;SDS011;72396;45.194;9.142;2024-03-02T05:04:13;8.15;;;4.10;;
79130;SDS011;72396;45.194;9.142;2024-03-02T05:06:39;9.55;;;4.43;;
79130;SDS011;72396;45.194;9.142;2024-03-02T05:09:05;9.10;;;4.88;;
79130;SDS011;72396;45.194;9.142;2024-03-02T05:11:34;8.50;;;4.63;;
79130;SDS011;72396;45.194;9.142;2024-03-02T05:14:03;9.77;;;4.63;;
79130;SDS011;72396;45.194;9.142;2024-03-02T05:16:28;8.43;;;4.28;;
79130;SDS011;72396;45.194;9.142;2024-03-02T05:18:54;9.60;;;4.82;;
79130;SDS011;72396;45.194;9.142;2024-03-02T05:21:19;11.88;;;5.32;;
79130;SDS011;72396;45.194;9.142;2024-03-02T05:23:45;10.05;;;4.90;;
79130;SDS011;72396;45.194;9.142;2024-03-02T05:26:10;10.65;;;5.55;;
79130;SDS011;72396;45.194;9.142;2024-03-02T05:28:38;10.02;;;4.65;;
79130;SDS011;72396;45.194;9.142;2024-03-02T05:31:04;9.18;;;5.20;;
79130;SDS011;72396;45.194;9.142;2024-03-02T05:33:29;9.13;;;4.75;;
79130;SDS011;72396;45.194;9.142;2024-03-02T05:35:56;10.13;;;5.00;;
79130;SDS011;72396;45.194;9.142;2024-03-02T05:38:22;10.10;;;4.85;;
79130;SDS011;72396;45.194;9.142;2024-03-02T05:40:47;8.48;;;4.80;;
79130;SDS011;72396;45.194;9.142;2024-03-02T05:43:13;10.20;;;4.88;;
79130;SDS011;72396;45.194;9.142;2024-03-02T05:45:38;8.35;;;4.60;;
79130;SDS011;72396;45.194;9.142;2024-03-02T05:48:05;10.18;;;5.13;;
79130;SDS011;72396;45.194;9.142;2024-03-02T05:50:32;11.32;;;5.68;;
79130;SDS011;72396;45.194;9.142;2024-03-02T05:52:57;10.27;;;5.22;;
79130;SDS011;72396;45.194;9.142;2024-03-02T05:55:23;10.23;;;5.25;;
79130;SDS011;72396;45.194;9.142;2024-03-02T05:57:49;10.70;;;5.53;;
79130;SDS011;72396;45.194;9.142;2024-03-02T06:00:28;10.95;;;5.28;;
79130;SDS011;72396;45.194;9.142;2024-03-02T06:02:53;10.77;;;5.57;;
79130;SDS011;72396;45.194;9.142;2024-03-02T06:05:18;9.70;;;5.07;;
79130;SDS011;72396;45.194;9.142;2024-03-02T06:07:44;9.88;;;4.95;;
79130;SDS011;72396;45.194;9.142;2024-03-02T06:10:09;13.93;;;5.80;;
79130;SDS011;72396;45.194;9.142;2024-03-02T06:12:35;10.50;;;5.32;;
79130;SDS011;72396;45.194;9.142;2024-03-02T06:15:00;9.93;;;5.88;;
79130;SDS011;72396;45.194;9.142;2024-03-02T06:17:25;9.18;;;5.22;;
79130;SDS011;72396;45.194;9.142;2024-03-02T06:19:50;11.32;;;5.85;;
79130;SDS011;72396;45.194;9.142;2024-03-02T06:22:16;8.82;;;4.80;;
79130;SDS011;72396;45.194;9.142;2024-03-02T06:24:41;10.57;;;5.10;;
79130;SDS011;72396;45.194;9.142;2024-03-02T06:27:07;10.30;;;5.20;;
79130;SDS011;72396;45.194;9.142;2024-03-02T06:29:32;10.23;;;5.28;;
79130;SDS011;72396;45.194;9.142;2024-03-02T06:31:58;12.07;;;5.57;;
79130;SDS011;72396;45.194;9.142;2024-03-02T06:34:24;10.48;;;5.30;;
79130;SDS011;72396;45.194;9.142;2024-03-02T06:36:49;8.73;;;4.40;;
79130;SDS011;72396;45.194;9.142;2024-03-02T06:39:15;10.00;;;4.35;;
79130;SDS011;72396;45.194;9.142;2024-03-02T06:41:40;8.77;;;4.60;;
79130;SDS011;72396;45.194;9.142;2024-03-02T06:44:05;8.45;;;4.10;;
79130;SDS011;72396;45.194;9.142;2024-03-02T06:46:31;8.88;;;4.72;;
79130;SDS011;72396;45.194;9.142;2024-03-02T06:48:58;8.52;;;4.57;;
79130;SDS011;72396;45.194;9.142;2024-03-02T06:51:23;8.60;;;4.97;;
79130;SDS011;72396;45.194;9.142;2024-03-02T06:53:48;8.35;;;4.85;;
79130;SDS011;72396;45.194;9.142;2024-03-02T06:56:14;8.95;;;4.88;;
79130;SDS011;72396;45.194;9.142;2024-03-02T06:58:39;9.43;;;4.93;;
79130;SDS011;72396;45.194;9.142;2024-03-02T07:01:04;8.43;;;4.63;;
79130;SDS011;72396;45.194;9.142;2024-03-02T07:03:30;10.13;;;4.95;;
79130;SDS011;72396;45.194;9.142;2024-03-02T07:05:55;9.05;;;4.80;;
79130;SDS011;72396;45.194;9.142;2024-03-02T07:08:20;8.63;;;4.85;;
79130;SDS011;72396;45.194;9.142;2024-03-02T07:10:46;10.48;;;4.70;;
79130;SDS011;72396;45.194;9.142;2024-03-02T07:13:12;9.35;;;4.97;;
79130;SDS011;72396;45.194;9.142;2024-03-02T07:15:38;9.63;;;4.82;;
79130;SDS011;72396;45.194;9.142;2024-03-02T07:18:32;10.05;;;5.00;;
79130;SDS011;72396;45.194;9.142;2024-03-02T07:21:05;11.55;;;5.30;;
79130;SDS011;72396;45.194;9.142;2024-03-02T07:23:31;11.25;;;5.13;;
79130;SDS011;72396;45.194;9.142;2024-03-02T07:25:57;11.77;;;5.38;;
79130;SDS011;72396;45.194;9.142;2024-03-02T07:28:24;11.10;;;5.53;;
79130;SDS011;72396;45.194;9.142;2024-03-02T07:31:00;9.85;;;5.20;;
79130;SDS011;72396;45.194;9.142;2024-03-02T07:33:26;9.82;;;4.97;;
79130;SDS011;72396;45.194;9.142;2024-03-02T07:35:51;16.40;;;5.40;;
79130;SDS011;72396;45.194;9.142;2024-03-02T07:38:18;9.75;;;5.65;;
79130;SDS011;72396;45.194;9.142;2024-03-02T07:40:44;9.52;;;4.97;;
79130;SDS011;72396;45.194;9.142;2024-03-02T07:43:09;12.52;;;5.03;;
79130;SDS011;72396;45.194;9.142;2024-03-02T07:45:34;10.43;;;5.30;;
79130;SDS011;72396;45.194;9.142;2024-03-02T07:48:02;11.77;;;4.40;;
79130;SDS011;72396;45.194;9.142;2024-03-02T07:50:31;10.15;;;5.00;;
79130;SDS011;72396;45.194;9.142;2024-03-02T07:52:59;10.45;;;4.50;;
79130;SDS011;72396;45.194;9.142;2024-03-02T07:55:24;10.75;;;4.75;;
79130;SDS011;72396;45.194;9.142;2024-03-02T07:57:50;11.55;;;5.13;;
79130;SDS011;72396;45.194;9.142;2024-03-02T08:00:15;9.13;;;4.40;;
79130;SDS011;72396;45.194;9.142;2024-03-02T08:02:41;11.27;;;5.03;;
79130;SDS011;72396;45.194;9.142;2024-03-02T08:05:07;10.88;;;4.70;;
79130;SDS011;72396;45.194;9.142;2024-03-02T08:07:33;7.57;;;4.03;;
79130;SDS011;72396;45.194;9.142;2024-03-02T08:09:58;8.98;;;4.30;;
79130;SDS011;72396;45.194;9.142;2024-03-02T08:12:24;9.35;;;3.97;;
79130;SDS011;72396;45.194;9.142;2024-03-02T08:14:49;9.45;;;4.80;;
79130;SDS011;72396;45.194;9.142;2024-03-02T08:17:14;10.48;;;5.10;;
79130;SDS011;72396;45.194;9.142;2024-03-02T08:19:40;11.38;;;4.55;;
79130;SDS011;72396;45.194;9.142;2024-03-02T08:22:05;9.02;;;4.30;;
79130;SDS011;72396;45.194;9.142;2024-03-02T08:24:31;11.02;;;4.43;;
79130;SDS011;72396;45.194;9.142;2024-03-02T08:26:58;11.63;;;4.75;;
79130;SDS011;72396;45.194;9.142;2024-03-02T08:29:24;9.48;;;3.97;;
79130;SDS011;72396;45.194;9.142;2024-03-02T08:31:50;10.63;;;4.80;;
79130;SDS011;72396;45.194;9.142;2024-03-02T08:34:15;9.85;;;4.35;;
79130;SDS011;72396;45.194;9.142;2024-03-02T08:36:41;9.43;;;4.13;;
79130;SDS011;72396;45.194;9.142;2024-03-02T08:39:09;9.57;;;4.30;;
79130;SDS011;72396;45.194;9.142;2024-03-02T08:41:46;9.27;;;4.32;;
79130;SDS011;72396;45.194;9.142;2024-03-02T08:44:12;10.52;;;4.80;;
79130;SDS011;72396;45.194;9.142;2024-03-02T08:46:39;8.40;;;4.13;;
79130;SDS011;72396;45.194;9.142;2024-03-02T08:49:04;9.95;;;4.32;;
79130;SDS011;72396;45.194;9.142;2024-03-02T08:51:30;12.55;;;4.30;;
79130;SDS011;72396;45.194;9.142;2024-03-02T08:53:56;9.43;;;4.20;;
79130;SDS011;72396;45.194;9.142;2024-03-02T08:56:21;14.60;;;4.70;;
79130;SDS011;72396;45.194;9.142;2024-03-02T08:58:48;7.82;;;3.92;;
79130;SDS011;72396;45.194;9.142;2024-03-02T09:01:14;8.90;;;4.43;;
79130;SDS011;72396;45.194;9.142;2024-03-02T09:03:40;10.02;;;4.50;;
79130;SDS011;72396;45.194;9.142;2024-03-02T09:06:06;11.95;;;4.70;;
79130;SDS011;72396;45.194;9.142;2024-03-02T09:08:31;8.73;;;4.38;;
79130;SDS011;72396;45.194;9.142;2024-03-02T09:10:57;9.77;;;4.50;;
79130;SDS011;72396;45.194;9.142;2024-03-02T09:13:22;8.82;;;4.15;;
79130;SDS011;72396;45.194;9.142;2024-03-02T09:15:48;9.98;;;4.53;;
79130;SDS011;72396;45.194;9.142;2024-03-02T09:18:14;9.23;;;4.28;;
79130;SDS011;72396;45.194;9.142;2024-03-02T09:20:40;10.77;;;5.40;;
79130;SDS011;72396;45.194;9.142;2024-03-02T09:23:05;10.70;;;4.90;;
79130;SDS011;72396;45.194;9.142;2024-03-02T09:25:31;11.57;;;4.80;;
79130;SDS011;72396;45.194;9.142;2024-03-02T09:27:56;11.65;;;5.22;;
79130;SDS011;72396;45.194;9.142;2024-03-02T09:30:22;9.70;;;4.40;;
79130;SDS011;72396;45.194;9.142;2024-03-02T09:32:47;10.75;;;4.75;;
79130;SDS011;72396;45.194;9.142;2024-03-02T09:35:12;10.80;;;5.05;;
79130;SDS011;72396;45.194;9.142;2024-03-02T09:37:38;8.27;;;4.63;;
79130;SDS011;72396;45.194;9.142;2024-03-02T09:40:03;9.90;;;4.97;;
79130;SDS011;72396;45.194;9.142;2024-03-02T09:42:29;9.05;;;4.22;;
79130;SDS011;72396;45.194;9.142;2024-03-02T09:44:54;7.05;;;4.00;;
79130;SDS011;72396;45.194;9.142;2024-03-02T09:47:20;10.00;;;4.07;;
79130;SDS011;72396;45.194;9.142;2024-03-02T09:49:45;7.28;;;3.58;;
79130;SDS011;72396;45.194;9.142;2024-03-02T09:52:11;8.50;;;3.80;;
79130;SDS011;72396;45.194;9.142;2024-03-02T09:54:38;7.03;;;3.53;;
79130;SDS011;72396;45.194;9.142;2024-03-02T09:57:04;5.93;;;3.58;;
79130;SDS011;72396;45.194;9.142;2024-03-02T09:59:29;6.13;;;3.35;;
79130;SDS011;72396;45.194;9.142;2024-03-02T10:01:55;7.15;;;3.80;;
79130;SDS011;72396;45.194;9.142;2024-03-02T10:04:25;6.30;;;3.20;;
79130;SDS011;72396;45.194;9.142;2024-03-02T10:06:51;8.02;;;3.08;;
79130;SDS011;72396;45.194;9.142;2024-03-02T10:09:34;8.63;;;3.25;;
79130;SDS011;72396;45.194;9.142;2024-03-02T10:12:05;6.68;;;3.45;;
79130;SDS011;72396;45.194;9.142;2024-03-02T10:14:32;5.32;;;3.28;;
79130;SDS011;72396;45.194;9.142;2024-03-02T10:17:17;6.47;;;2.78;;
79130;SDS011;72396;45.194;9.142;2024-03-02T10:19:43;6.82;;;2.72;;
79130;SDS011;72396;45.194;9.142;2024-03-02T10:22:08;6.57;;;2.70;;
79130;SDS011;72396;45.194;9.142;2024-03-02T10:24:42;6.05;;;2.92;;
79130;SDS011;72396;45.194;9.142;2024-03-02T10:29:41;6.20;;;3.35;;
79130;SDS011;72396;45.194;9.142;2024-03-02T10:32:10;7.03;;;2.97;;
79130;SDS011;72396;45.194;9.142;2024-03-02T10:34:36;5.20;;;2.63;;
79130;SDS011;72396;45.194;9.142;2024-03-02T10:37:02;5.68;;;3.08;;
79130;SDS011;72396;45.194;9.142;2024-03-02T10:39:28;6.30;;;3.50;;
79130;SDS011;72396;45.194;9.142;2024-03-02T10:41:55;5.88;;;3.08;;
79130;SDS011;72396;45.194;9.142;2024-03-02T10:44:22;4.85;;;2.83;;
79130;SDS011;72396;45.194;9.142;2024-03-02T10:46:48;5.00;;;2.47;;
79130;SDS011;72396;45.194;9.142;2024-03-02T10:49:15;5.47;;;3.10;;
79130;SDS011;72396;45.194;9.142;2024-03-02T10:51:40;6.15;;;2.92;;
79130;SDS011;72396;45.194;9.142;2024-03-02T10:54:06;11.48;;;3.53;;
79130;SDS011;72396;45.194;9.142;2024-03-02T10:56:32;5.18;;;3.22;;
79130;SDS011;72396;45.194;9.142;2024-03-02T10:59:21;4.80;;;2.58;;
79130;SDS011;72396;45.194;9.142;2024-03-02T11:01:47;5.10;;;2.83;;
79130;SDS011;72396;45.194;9.142;2024-03-02T11:04:15;4.53;;;2.58;;
79130;SDS011;72396;45.194;9.142;2024-03-02T11:06:48;4.57;;;2.25;;
79130;SDS011;72396;45.194;9.142;2024-03-02T11:09:15;5.78;;;2.50;;
79130;SDS011;72396;45.194;9.142;2024-03-02T11:11:44;5.93;;;2.50;;
79130;SDS011;72396;45.194;9.142;2024-03-02T11:14:16;5.93;;;2.22;;
79130;SDS011;72396;45.194;9.142;2024-03-02T11:16:46;5.30;;;2.03;;
79130;SDS011;72396;45.194;9.142;2024-03-02T11:19:12;4.32;;;2.00;;
79130;SDS011;72396;45.194;9.142;2024-03-02T11:21:39;2.95;;;1.83;;
79130;SDS011;72396;45.194;9.142;2024-03-02T11:26:57;4.28;;;1.77;;
79130;SDS011;72396;45.194;9.142;2024-03-02T11:32:00;3.25;;;1.60;;
79130;SDS011;72396;45.194;9.142;2024-03-02T11:34:30;2.80;;;1.58;;
79130;SDS011;72396;45.194;9.142;2024-03-02T11:36:57;3.47;;;1.52;;
79130;SDS011;72396;45.194;9.142;2024-03-02T11:39:24;3.13;;;1.33;;
79130;SDS011;72396;45.194;9.142;2024-03-02T11:41:50;2.35;;;1.00;;
79130;SDS011;72396;45.194;9.142;2024-03-02T11:44:16;3.17;;;1.23;;
79130;SDS011;72396;45.194;9.142;2024-03-02T11:46:44;2.85;;;1.33;;
79130;SDS011;72396;45.194;9.142;2024-03-02T11:49:13;3.00;;;1.50;;
79130;SDS011;72396;45.194;9.142;2024-03-02T11:51:39;2.75;;;1.33;;
79130;SDS011;72396;45.194;9.142;2024-03-02T12:10:14;3.38;;;2.00;;
79130;SDS011;72396;45.194;9.142;2024-03-02T12:12:40;3.20;;;1.58;;
79130;SDS011;72396;45.194;9.142;2024-03-02T12:15:05;3.25;;;1.60;;
79130;SDS011;72396;45.194;9.142;2024-03-02T12:17:31;2.50;;;1.38;;
79130;SDS011;72396;45.194;9.142;2024-03-02T12:19:56;3.10;;;1.35;;
79130;SDS011;72396;45.194;9.142;2024-03-02T12:22:22;6.15;;;1.50;;
79130;SDS011;72396;45.194;9.142;2024-03-02T12:24:47;2.60;;;1.20;;
79130;SDS011;72396;45.194;9.142;2024-03-02T12:27:15;3.35;;;1.83;;
79130;SDS011;72396;45.194;9.142;2024-03-02T12:29:41;3.25;;;1.58;;
79130;SDS011;72396;45.194;9.142;2024-03-02T12:32:06;3.03;;;1.67;;
79130;SDS011;72396;45.194;9.142;2024-03-02T12:34:32;4.75;;;1.83;;
79130;SDS011;72396;45.194;9.142;2024-03-02T12:36:57;3.72;;;1.58;;
79130;SDS011;72396;45.194;9.142;2024-03-02T12:39:23;2.70;;;1.33;;
79130;SDS011;72396;45.194;9.142;2024-03-02T12:41:48;2.63;;;1.38;;
79130;SDS011;72396;45.194;9.142;2024-03-02T12:44:15;2.80;;;1.40;;
79130;SDS011;72396;45.194;9.142;2024-03-02T12:46:41;2.70;;;1.42;;
79130;SDS011;72396;45.194;9.142;2024-03-02T12:49:08;2.90;;;1.50;;
79130;SDS011;72396;45.194;9.142;2024-03-02T12:51:36;2.40;;;1.20;;
79130;SDS011;72396;45.194;9.142;2024-03-02T12:54:02;2.33;;;1.25;;
79130;SDS011;72396;45.194;9.142;2024-03-02T12:56:28;3.63;;;1.55;;
79130;SDS011;72396;45.194;9.142;2024-03-02T12:58:54;2.90;;;1.50;;
79130;SDS011;72396;45.194;9.142;2024-03-02T13:01:20;2.35;;;1.30;;
79130;SDS011;72396;45.194;9.142;2024-03-02T13:03:49;2.75;;;1.20;;
79130;SDS011;72396;45.194;9.142;2024-03-02T13:06:17;3.42;;;1.58;;
79130;SDS011;72396;45.194;9.142;2024-03-02T13:08:42;3.03;;;1.73;;
79130;SDS011;72396;45.194;9.142;2024-03-02T13:11:08;2.85;;;1.40;;
79130;SDS011;72396;45.194;9.142;2024-03-02T13:13:34;4.07;;;2.13;;
79130;SDS011;72396;45.194;9.142;2024-03-02T13:16:00;3.85;;;1.65;;
79130;SDS011;72396;45.194;9.142;2024-03-02T13:18:25;3.40;;;1.70;;
79130;SDS011;72396;45.194;9.142;2024-03-02T13:20:51;2.65;;;1.45;;
79130;SDS011;72396;45.194;9.142;2024-03-02T13:23:17;3.78;;;1.75;;
79130;SDS011;72396;45.194;9.142;2024-03-02T13:25:42;4.93;;;1.70;;
79130;SDS011;72396;45.194;9.142;2024-03-02T13:28:08;2.65;;;1.40;;
79130;SDS011;72396;45.194;9.142;2024-03-02T13:30:33;3.13;;;1.45;;
79130;SDS011;72396;45.194;9.142;2024-03-02T13:32:59;3.45;;;1.70;;
79130;SDS011;72396;45.194;9.142;2024-03-02T13:35:24;2.63;;;1.42;;
79130;SDS011;72396;45.194;9.142;2024-03-02T13:37:50;2.50;;;1.20;;
79130;SDS011;72396;45.194;9.142;2024-03-02T13:40:15;3.03;;;1.48;;
79130;SDS011;72396;45.194;9.142;2024-03-02T13:42:45;3.20;;;1.40;;
79130;SDS011;72396;45.194;9.142;2024-03-02T13:45:11;3.40;;;1.67;;
79130;SDS011;72396;45.194;9.142;2024-03-02T13:47:37;2.75;;;1.35;;
79130;SDS011;72396;45.194;9.142;2024-03-02T13:50:03;5.90;;;1.60;;
79130;SDS011;72396;45.194;9.142;2024-03-02T13:52:30;3.67;;;1.58;;
79130;SDS011;72396;45.194;9.142;2024-03-02T13:54:55;2.95;;;1.58;;
79130;SDS011;72396;45.194;9.142;2024-03-02T13:57:21;3.20;;;1.70;;
79130;SDS011;72396;45.194;9.142;2024-03-02T13:59:46;3.00;;;1.73;;
79130;SDS011;72396;45.194;9.142;2024-03-02T14:02:12;2.80;;;1.65;;
79130;SDS011;72396;45.194;9.142;2024-03-02T14:04:37;3.50;;;1.70;;
79130;SDS011;72396;45.194;9.142;2024-03-02T14:07:04;4.38;;;1.80;;
79130;SDS011;72396;45.194;9.142;2024-03-02T14:09:31;3.08;;;1.85;;
79130;SDS011;72396;45.194;9.142;2024-03-02T14:11:57;3.75;;;2.10;;
79130;SDS011;72396;45.194;9.142;2024-03-02T14:14:22;3.80;;;2.00;;
79130;SDS011;72396;45.194;9.142;2024-03-02T14:16:48;3.38;;;1.83;;
79130;SDS011;72396;45.194;9.142;2024-03-02T14:19:13;5.85;;;2.35;;
79130;SDS011;72396;45.194;9.142;2024-03-02T14:21:39;4.72;;;2.40;;
79130;SDS011;72396;45.194;9.142;2024-03-02T14:24:04;5.40;;;2.70;;
79130;SDS011;72396;45.194;9.142;2024-03-02T14:26:32;4.63;;;2.63;;
79130;SDS011;72396;45.194;9.142;2024-03-02T14:28:58;6.47;;;3.30;;
79130;SDS011;72396;45.194;9.142;2024-03-02T14:31:23;5.95;;;2.95;;
79130;SDS011;72396;45.194;9.142;2024-03-02T14:33:49;7.22;;;3.05;;
79130;SDS011;72396;45.194;9.142;2024-03-02T14:36:14;5.47;;;3.15;;
79130;SDS011;72396;45.194;9.142;2024-03-02T14:38:40;6.68;;;3.90;;
79130;SDS011;72396;45.194;9.142;2024-03-02T14:41:05;5.65;;;3.17;;
79130;SDS011;72396;45.194;9.142;2024-03-02T14:43:30;6.38;;;4.03;;
79130;SDS011;72396;45.194;9.142;2024-03-02T14:45:56;5.35;;;3.60;;
79130;SDS011;72396;45.194;9.142;2024-03-02T14:48:21;7.30;;;3.90;;
79130;SDS011;72396;45.194;9.142;2024-03-02T14:50:47;6.63;;;3.72;;
79130;SDS011;72396;45.194;9.142;2024-03-02T14:53:13;7.07;;;3.50;;
79130;SDS011;72396;45.194;9.142;2024-03-02T14:55:39;5.20;;;3.13;;
79130;SDS011;72396;45.194;9.142;2024-03-02T14:58:04;5.80;;;3.22;;
79130;SDS011;72396;45.194;9.142;2024-03-02T15:00:29;5.85;;;3.33;;
79130;SDS011;72396;45.194;9.142;2024-03-02T15:02:55;5.45;;;2.95;;
79130;SDS011;72396;45.194;9.142;2024-03-02T15:05:21;4.65;;;2.70;;
79130;SDS011;72396;45.194;9.142;2024-03-02T15:07:46;5.85;;;3.30;;
79130;SDS011;72396;45.194;9.142;2024-03-02T15:10:11;4.80;;;2.72;;
79130;SDS011;72396;45.194;9.142;2024-03-02T15:12:37;5.80;;;3.28;;